Time;durP1;ratioP1;P1;durP2;ratioP2;P2;SDS_P1;SDS_P2;PMS_P1;PMS_P2;Temp;Humidity;BMP_temperature;BMP_pressure;BME280_temperature;BME280_humidity;BME280_pressure;Samples;Min_cycle;Max_cycle;Signal;HPM_P1;HPM_P2
2024/03/03 00:00:05;;;;;;;11.32;6.93;;;230.40;2252.80;;;;;;5122693;27;20499;-76
2024/03/03 00:02:31;;;;;;;10.98;6.50;;;230.50;2252.80;;;;;;5119841;27;20114;-76
2024/03/03 00:04:57;;;;;;;;;;;230.40;2252.80;;;;;;5106318;27;20061;-77
2024/03/03 00:07:22;;;;;;;13.35;6.15;;;230.50;2252.80;;;;;;5115922;27;19907;-77
2024/03/03 00:09:48;;;;;;;;;;;230.60;2252.80;;;;;;5110038;27;20042;-78
2024/03/03 00:12:14;;;;;;;12.95;7.97;;;230.60;2252.80;;;;;;5124600;27;19926;-78
2024/03/03 00:14:40;;;;;;;13.25;7.05;;;230.50;2252.80;;;;;;5104003;27;20540;-77
2024/03/03 00:17:05;;;;;;;14.73;7.53;;;230.60;2252.80;;;;;;5116039;27;20030;-77
2024/03/03 00:19:31;;;;;;;;;;;230.60;2252.80;;;;;;5109658;27;20130;-77
2024/03/03 00:21:57;;;;;;;14.13;6.90;;;230.60;2252.80;;;;;;5113525;27;19914;-78
2024/03/03 00:24:22;;;;;;;;;;;230.60;2252.80;;;;;;5105852;28;20401;-79
2024/03/03 00:26:49;;;;;;;13.65;7.43;;;230.60;2252.80;;;;;;5112466;27;20249;-78
2024/03/03 00:29:15;;;;;;;13.88;7.88;;;230.60;2252.80;;;;;;5106218;28;20498;-77
2024/03/03 00:31:44;;;;;;;13.93;8.15;;;230.60;2252.80;;;;;;5130236;27;20051;-78
2024/03/03 00:34:10;;;;;;;15.30;7.45;;;230.60;2252.80;;;;;;5121680;28;20127;-77
2024/03/03 00:36:35;;;;;;;15.85;8.40;;;230.50;2252.80;;;;;;5118170;28;20042;-77
2024/03/03 00:39:04;;;;;;;12.55;7.95;;;230.70;2252.80;;;;;;5103739;28;20020;-76
2024/03/03 00:41:29;;;;;;;12.18;7.18;;;230.60;2252.80;;;;;;5114401;28;20027;-77
2024/03/03 00:43:55;;;;;;;14.23;7.95;;;230.60;2252.80;;;;;;5102555;28;20032;-76
2024/03/03 00:46:21;;;;;;;;;;;230.60;2252.80;;;;;;5116266;28;20019;-77
2024/03/03 00:48:46;;;;;;;15.88;8.23;;;230.60;2252.80;;;;;;5108579;28;19915;-77
2024/03/03 00:51:12;;;;;;;;;;;230.70;2252.80;;;;;;5116405;28;20492;-76
2024/03/03 00:53:38;;;;;;;12.45;7.03;;;230.70;2252.80;;;;;;5112471;28;19908;-78
2024/03/03 00:56:05;;;;;;;13.30;7.68;;;230.70;2252.80;;;;;;5108554;28;20032;-76
2024/03/03 00:58:31;;;;;;;12.65;6.88;;;230.70;2252.80;;;;;;5112226;28;20485;-76
2024/03/03 01:00:56;;;;;;;11.98;7.07;;;230.80;2252.80;;;;;;5112222;28;20030;-77
2024/03/03 01:03:22;;;;;;;;;;;230.70;2252.80;;;;;;5115048;28;20055;-77
2024/03/03 01:05:48;;;;;;;13.60;7.97;;;230.90;2252.80;;;;;;5104714;28;19954;-77
2024/03/03 01:08:14;;;;;;;12.05;7.90;;;230.80;2252.80;;;;;;5108495;28;20020;-77
2024/03/03 01:10:40;;;;;;;15.65;8.90;;;230.80;2252.80;;;;;;5128402;27;20051;-76
2024/03/03 01:13:05;;;;;;;13.15;8.13;;;230.80;2252.80;;;;;;5110921;28;20473;-76
2024/03/03 01:15:31;;;;;;;15.23;7.45;;;230.80;2252.80;;;;;;5101660;28;20059;-77
2024/03/03 01:17:57;;;;;;;;;;;230.80;2252.80;;;;;;5108022;28;20538;-77
2024/03/03 01:20:23;;;;;;;14.88;9.07;;;230.90;2252.80;;;;;;5110442;28;19913;-76
2024/03/03 01:22:49;;;;;;;12.45;7.25;;;230.80;2252.80;;;;;;5118524;27;20496;-79
2024/03/03 01:25:15;;;;;;;15.07;8.50;;;230.80;2252.80;;;;;;5108854;27;20120;-76
2024/03/03 01:27:40;;;;;;;14.70;8.07;;;230.80;2252.80;;;;;;5116344;27;20020;-80
2024/03/03 01:30:06;;;;;;;13.43;7.80;;;230.70;2252.80;;;;;;5106030;27;20047;-80
2024/03/03 01:32:32;;;;;;;15.32;7.53;;;230.70;2252.80;;;;;;5115674;28;20031;-77
2024/03/03 01:34:58;;;;;;;11.75;7.68;;;230.70;2252.80;;;;;;5113169;28;20110;-76
2024/03/03 01:37:24;;;;;;;13.20;8.13;;;230.70;2252.80;;;;;;5118742;27;20035;-76
2024/03/03 01:39:49;;;;;;;12.93;8.13;;;230.70;2252.80;;;;;;5108755;28;20032;-77
2024/03/03 01:42:15;;;;;;;13.43;8.15;;;230.60;2252.80;;;;;;5112111;28;20398;-77
2024/03/03 01:44:41;;;;;;;12.13;7.65;;;230.70;2252.80;;;;;;5108030;27;20035;-76
2024/03/03 01:47:11;;;;;;;12.40;7.55;;;230.60;2252.80;;;;;;5110405;28;20077;-80
2024/03/03 01:49:38;;;;;;;18.55;9.98;;;230.70;2252.80;;;;;;5115344;28;20043;-76
2024/03/03 01:52:07;;;;;;;15.88;8.85;;;230.60;2252.80;;;;;;5115309;28;20078;-77
2024/03/03 01:54:37;;;;;;;13.73;7.40;;;230.60;2252.80;;;;;;5115499;28;20015;-80
2024/03/03 01:57:09;;;;;;;16.67;9.57;;;230.60;2252.80;;;;;;5115427;28;20034;-77
2024/03/03 01:59:36;;;;;;;13.15;7.63;;;230.60;2252.80;;;;;;5114947;28;20062;-78
2024/03/03 02:02:03;;;;;;;13.48;7.05;;;230.60;2252.80;;;;;;5116710;27;20501;-77
2024/03/03 02:04:29;;;;;;;18.05;8.52;;;230.60;2252.80;;;;;;5114881;28;20038;-78
2024/03/03 02:06:57;;;;;;;13.55;8.55;;;230.50;2252.80;;;;;;5115271;28;20024;-77
2024/03/03 02:09:22;;;;;;;13.10;8.00;;;230.50;2252.80;;;;;;5102425;27;20036;-79
2024/03/03 02:11:48;;;;;;;;;;;230.60;2252.80;;;;;;5115414;28;20026;-77
2024/03/03 02:14:14;;;;;;;15.02;7.55;;;230.50;2252.80;;;;;;5115136;28;19903;-77
2024/03/03 02:22:45;;;;;;;15.80;8.77;;;230.60;2252.80;;;;;;5059302;28;20048;-77
2024/03/03 02:25:11;;;;;;;14.73;8.50;;;230.60;2252.80;;;;;;5061189;28;20474;-78
2024/03/03 02:27:38;;;;;;;17.13;9.38;;;230.50;2252.80;;;;;;5061495;28;20021;-79
2024/03/03 02:30:05;;;;;;;14.77;9.10;;;230.50;2252.80;;;;;;5065458;28;20041;-78
2024/03/03 02:32:30;;;;;;;18.65;9.15;;;230.50;2252.80;;;;;;5064605;28;20481;-79
2024/03/03 02:34:57;;;;;;;17.13;9.38;;;230.50;2252.80;;;;;;5074162;28;20039;-80
2024/03/03 02:37:22;;;;;;;13.63;8.60;;;230.50;2252.80;;;;;;5075008;28;20024;-76
2024/03/03 02:39:48;;;;;;;13.50;8.90;;;230.50;2252.80;;;;;;5070184;28;20043;-78
2024/03/03 02:42:14;;;;;;;;;;;230.50;2252.80;;;;;;5054677;28;20021;-77
2024/03/03 02:44:39;;;;;;;15.80;9.23;;;230.50;2252.80;;;;;;5070903;28;19904;-77
2024/03/03 02:47:05;;;;;;;14.63;9.60;;;230.50;2252.80;;;;;;5075117;28;20047;-82
2024/03/03 02:49:31;;;;;;;14.43;8.77;;;230.50;2252.80;;;;;;5074475;28;20417;-78
2024/03/03 02:51:57;;;;;;;;;;;230.50;2252.80;;;;;;5073604;28;20406;-78
2024/03/03 02:54:23;;;;;;;;;;;230.60;2252.80;;;;;;5074120;28;19904;-78
2024/03/03 02:56:49;;;;;;;;;;;230.60;2252.80;;;;;;5073893;28;20344;-77
2024/03/03 02:59:14;;;;;;;;;;;230.60;2252.80;;;;;;5074972;28;20365;-79
2024/03/03 03:01:40;;;;;;;;;;;230.60;2252.80;;;;;;5072823;28;19995;-82
2024/03/03 03:04:06;;;;;;;;;;;230.60;2252.80;;;;;;5073021;28;19904;-77
2024/03/03 03:06:31;;;;;;;;;;;230.60;2252.80;;;;;;5073756;28;20282;-78
2024/03/03 03:08:57;;;;;;;;;;;230.50;2252.80;;;;;;5073698;28;20082;-77
2024/03/03 03:11:24;;;;;;;;;;;230.60;2252.80;;;;;;5074659;28;19915;-80
2024/03/03 03:13:49;;;;;;;;;;;230.50;2252.80;;;;;;5074103;28;19904;-78
2024/03/03 03:16:15;;;;;;;;;;;230.50;2252.80;;;;;;5072304;28;19935;-78
2024/03/03 03:18:44;;;;;;;;;;;230.50;2252.80;;;;;;5073653;28;19908;-77
2024/03/03 03:21:10;;;;;;;;;;;230.60;2252.80;;;;;;5073948;28;19916;-77
2024/03/03 03:23:35;;;;;;;;;;;230.50;2252.80;;;;;;5074783;28;19978;-78
2024/03/03 03:26:01;;;;;;;;;;;230.50;2252.80;;;;;;5073330;28;19905;-77
2024/03/03 03:28:27;;;;;;;;;;;230.50;2252.80;;;;;;5073321;28;19912;-77
2024/03/03 03:30:53;;;;;;;;;;;230.50;2252.80;;;;;;5074125;28;19919;-78
2024/03/03 03:33:18;;;;;;;;;;;230.50;2252.80;;;;;;5073196;28;20003;-77
2024/03/03 03:35:44;;;;;;;;;;;230.50;2252.80;;;;;;5073029;28;19904;-78
2024/03/03 03:38:09;;;;;;;;;;;230.50;2252.80;;;;;;5073310;28;19905;-78
2024/03/03 03:40:35;;;;;;;;;;;230.40;2252.80;;;;;;5073129;28;19904;-82
2024/03/03 03:43:04;;;;;;;;;;;230.40;2252.80;;;;;;5072849;28;19912;-77
2024/03/03 03:45:29;;;;;;;;;;;230.50;2252.80;;;;;;5072426;28;20281;-77
2024/03/03 03:47:55;;;;;;;;;;;230.50;2252.80;;;;;;5072296;28;19904;-81
2024/03/03 03:50:21;;;;;;;;;;;230.40;2252.80;;;;;;5072389;28;20278;-77
2024/03/03 03:52:46;;;;;;;;;;;205.70;2252.80;;;;;;5073045;28;19904;-77
2024/03/03 03:55:12;;;;;;;;;;;205.70;2252.80;;;;;;5074043;28;20388;-78
2024/03/03 03:57:37;;;;;;;;;;;230.40;2252.80;;;;;;5074203;28;19915;-78
2024/03/03 04:00:05;;;;;;;;;;;230.40;2252.80;;;;;;5072472;28;20354;-76
2024/03/03 04:02:31;;;;;;;;;;;230.50;2252.80;;;;;;5073151;28;19904;-78
2024/03/03 04:04:57;;;;;;;;;;;230.50;2252.80;;;;;;5074113;28;19927;-78
2024/03/03 04:07:22;;;;;;;;;;;230.50;2252.80;;;;;;5072688;28;19978;-77
2024/03/03 04:09:49;;;;;;;;;;;230.50;2252.80;;;;;;5072329;28;19948;-78
2024/03/03 04:12:14;;;;;;;;;;;230.50;2252.80;;;;;;5072764;28;19904;-78
2024/03/03 04:14:40;;;;;;;;;;;230.50;2252.80;;;;;;5059144;28;20407;-77
2024/03/03 04:17:06;;;;;;;;;;;230.50;2252.80;;;;;;5074111;28;19973;-77
2024/03/03 04:19:32;;;;;;;;;;;230.60;2252.80;;;;;;5072409;28;19905;-77
2024/03/03 04:21:57;;;;;;;;;;;230.60;2252.80;;;;;;5072055;28;19947;-78
2024/03/03 04:24:23;;;;;;;;;;;230.60;2252.80;;;;;;5073708;28;20357;-76
2024/03/03 04:26:49;;;;;;;;;;;230.60;2252.80;;;;;;5071748;28;19958;-79
2024/03/03 04:29:14;;;;;;;;;;;230.60;2252.80;;;;;;5073655;28;19909;-77
2024/03/03 04:31:43;;;;;;;;;;;230.60;2252.80;;;;;;5072470;28;19931;-77
2024/03/03 04:34:12;;;;;;;;;;;230.60;2252.80;;;;;;5072415;28;19905;-78
2024/03/03 04:36:42;;;;;;;;;;;230.70;2252.80;;;;;;5072377;28;19908;-78
2024/03/03 04:39:07;;;;;;;;;;;230.70;2252.80;;;;;;5073684;28;20009;-77
2024/03/03 04:41:33;;;;;;;;;;;230.70;2252.80;;;;;;5072637;28;20369;-77
2024/03/03 04:43:59;;;;;;;;;;;230.70;2252.80;;;;;;5072244;28;19904;-77
2024/03/03 04:46:25;;;;;;;;;;;230.70;2252.80;;;;;;5072514;28;20003;-83
2024/03/03 04:48:50;;;;;;;;;;;230.80;2252.80;;;;;;5071865;28;19911;-78
2024/03/03 04:51:16;;;;;;;;;;;230.80;2252.80;;;;;;5072076;28;19912;-79
2024/03/03 04:53:41;;;;;;;;;;;230.80;2252.80;;;;;;5072312;28;19905;-78
2024/03/03 04:56:07;;;;;;;;;;;230.80;2252.80;;;;;;5073936;28;19909;-78
2024/03/03 04:58:33;;;;;;;;;;;230.80;2252.80;;;;;;5074729;28;19911;-77
2024/03/03 05:00:58;;;;;;;;;;;230.80;2252.80;;;;;;5077820;28;19954;-81
2024/03/03 05:03:26;;;;;;;;;;;230.80;2252.80;;;;;;5077344;28;20400;-78
2024/03/03 05:05:52;;;;;;;;;;;230.80;2252.80;;;;;;5075732;28;19904;-79
2024/03/03 05:08:17;;;;;;;;;;;230.80;2252.80;;;;;;5077267;28;19908;-77
2024/03/03 05:10:43;;;;;;;;;;;230.80;2252.80;;;;;;5076152;28;19958;-78
2024/03/03 05:13:08;;;;;;;;;;;230.80;2252.80;;;;;;5075552;28;19904;-78
2024/03/03 05:15:34;;;;;;;;;;;230.80;2252.80;;;;;;5075810;28;19912;-77
2024/03/03 05:18:00;;;;;;;;;;;230.80;2252.80;;;;;;5076010;28;19989;-78
2024/03/03 05:20:25;;;;;;;;;;;230.90;2252.80;;;;;;5075413;28;20350;-77
2024/03/03 05:22:51;;;;;;;;;;;230.90;2252.80;;;;;;5076832;28;20003;-78
2024/03/03 05:25:17;;;;;;;;;;;231.10;2252.80;;;;;;5077035;28;19911;-76
2024/03/03 05:27:42;;;;;;;;;;;231.10;2252.80;;;;;;5076505;28;19927;-77
2024/03/03 05:30:08;;;;;;;;;;;231.10;2252.80;;;;;;5076886;28;20354;-77
2024/03/03 05:32:33;;;;;;;;;;;231.10;2252.80;;;;;;5075718;28;19904;-77
2024/03/03 05:34:59;;;;;;;;;;;231.10;2252.80;;;;;;5075572;28;20288;-77
2024/03/03 05:37:25;;;;;;;;;;;231.00;2252.80;;;;;;5075009;28;20014;-83
2024/03/03 05:39:50;;;;;;;;;;;231.10;2252.80;;;;;;5075373;28;19908;-77
2024/03/03 05:42:17;;;;;;;;;;;230.90;2252.80;;;;;;5076613;28;20349;-78
2024/03/03 05:44:42;;;;;;;;;;;230.90;2252.80;;;;;;5076736;28;19958;-80
2024/03/03 05:47:09;;;;;;;;;;;230.90;2252.80;;;;;;5076493;28;19905;-78
2024/03/03 05:49:36;;;;;;;;;;;230.90;2252.80;;;;;;5076631;28;19912;-76
2024/03/03 05:52:02;;;;;;;;;;;230.90;2252.80;;;;;;5075772;28;19919;-77
2024/03/03 05:54:27;;;;;;;;;;;230.90;2252.80;;;;;;5075474;28;19995;-77
2024/03/03 05:56:53;;;;;;;;;;;231.00;2252.80;;;;;;5076402;28;20019;-77
2024/03/03 05:59:19;;;;;;;;;;;231.00;2252.80;;;;;;5075048;28;19999;-77
2024/03/03 06:01:48;;;;;;;;;;;231.00;2252.80;;;;;;5075049;28;20350;-81
2024/03/03 06:04:16;;;;;;;;;;;231.00;2252.80;;;;;;5076160;28;19904;-76
2024/03/03 06:06:42;;;;;;;;;;;230.90;2252.80;;;;;;5074636;28;19911;-81
2024/03/03 06:09:11;;;;;;;;;;;231.00;2252.80;;;;;;5075146;28;20006;-77
2024/03/03 06:11:40;;;;;;;;;;;231.00;2252.80;;;;;;5074807;28;19908;-80
2024/03/03 06:14:09;;;;;;;;;;;230.90;2252.80;;;;;;5076283;28;19912;-76
2024/03/03 06:16:38;;;;;;;;;;;230.90;2252.80;;;;;;5076094;28;20353;-76
2024/03/03 06:19:04;;;;;;;;;;;230.90;2252.80;;;;;;5074797;28;20362;-79
2024/03/03 06:21:30;;;;;;;;;;;230.90;2252.80;;;;;;5075804;28;19921;-79
2024/03/03 06:23:55;;;;;;;;;;;231.00;2252.80;;;;;;5069204;28;19954;-77
2024/03/03 06:26:21;;;;;;;;;;;231.00;2252.80;;;;;;5063801;28;20273;-78
2024/03/03 06:28:48;;;;;;;;;;;231.10;2252.80;;;;;;5078306;28;19963;-78
2024/03/03 06:31:13;;;;;;;;;;;231.20;2252.80;;;;;;5067973;28;19912;-78
2024/03/03 06:33:39;;;;;;;;;;;256.00;2252.80;;;;;;5058631;28;19970;-76
2024/03/03 06:36:05;;;;;;;;;;;256.30;2252.80;;;;;;5059265;28;20243;-77
2024/03/03 06:38:30;;;;;;;;;;;256.50;2252.80;;;;;;5066689;28;19915;-78
2024/03/03 06:40:56;;;;;;;;;;;256.70;2252.80;;;;;;5060583;28;19908;-79
2024/03/03 06:43:22;;;;;;;;;;;256.80;2252.80;;;;;;5067360;28;19904;-79
2024/03/03 06:45:47;;;;;;;;;;;256.80;2252.80;;;;;;5067152;28;19912;-80
2024/03/03 06:48:13;;;;;;;;;;;256.90;2252.80;;;;;;5065584;28;20385;-79
2024/03/03 06:50:38;;;;;;;;;;;256.90;2252.80;;;;;;5062695;28;19926;-78
2024/03/03 06:53:04;;;;;;;;;;;281.70;2278.40;;;;;;5059195;28;19909;-78
2024/03/03 06:55:30;;;;;;;;;;;281.90;2278.40;;;;;;5061144;28;19908;-79
2024/03/03 06:57:55;;;;;;;;;;;282.00;2278.40;;;;;;5065251;28;19912;-77
2024/03/03 07:00:21;;;;;;;;;;;282.10;2278.40;;;;;;5054361;28;19904;-79
2024/03/03 07:05:31;;;;;;;;;;;282.20;2278.40;;;;;;5063757;28;19915;-77
2024/03/03 07:07:57;;;;;;;;;;;282.50;2278.40;;;;;;5063049;28;19909;-78
2024/03/03 07:10:23;;;;;;;;;;;307.30;2304.00;;;;;;5084582;28;20330;-76
2024/03/03 07:12:48;;;;;;;;;;;307.60;2304.00;;;;;;5082931;28;19905;-75
2024/03/03 07:15:14;;;;;;;;;;;307.90;2304.00;;;;;;5073788;28;20346;-79
2024/03/03 07:17:40;;;;;;;;;;;308.10;2304.00;;;;;;5068551;28;19909;-80
2024/03/03 07:20:06;;;;;;;;;;;307.70;2304.00;;;;;;5061445;28;20373;-79
2024/03/03 07:22:34;;;;;;;;;;;307.40;2304.00;;;;;;5064334;28;19920;-80
2024/03/03 07:25:03;;;;;;;;;;;307.60;2304.00;;;;;;5060731;28;19954;-79
2024/03/03 07:27:29;;;;;;;;;;;307.80;2304.00;;;;;;5068114;28;19931;-79
2024/03/03 07:29:55;;;;;;;;;;;308.10;2304.00;;;;;;5060000;28;20362;-80
2024/03/03 07:32:20;;;;;;;;;;;332.80;2329.60;;;;;;5060234;28;19909;-79
2024/03/03 07:34:49;;;;;;;;;;;333.10;2329.60;;;;;;5063336;28;19999;-78
2024/03/03 07:37:15;;;;;;;;;;;333.10;2329.60;;;;;;5065913;28;19904;-78
2024/03/03 07:39:44;;;;;;;;;;;333.20;2329.60;;;;;;5060614;28;19904;-80
2024/03/03 07:42:10;;;;;;;;;;;333.20;2329.60;;;;;;5060750;28;20007;-80
2024/03/03 07:44:35;;;;;;;;;;;333.20;2329.60;;;;;;5067046;28;19970;-79
2024/03/03 07:47:02;;;;;;;;;;;333.30;2329.60;;;;;;5059412;28;20346;-79
2024/03/03 07:49:27;;;;;;;;;;;333.40;2329.60;;;;;;5066763;28;19921;-79
2024/03/03 07:51:53;;;;;;;;;;;333.40;2329.60;;;;;;5062717;28;19935;-79
2024/03/03 07:54:19;;;;;;;;;;;333.70;2329.60;;;;;;5068951;28;19908;-79
2024/03/03 07:56:44;;;;;;;;;;;358.50;2329.60;;;;;;5078176;28;20350;-79
2024/03/03 07:59:10;;;;;;;;;;;358.50;2329.60;;;;;;5060824;28;19909;-80
2024/03/03 08:01:35;;;;;;;;;;;358.70;2329.60;;;;;;5062693;28;20003;-80
2024/03/03 08:04:02;;;;;;;;;;;358.50;2329.60;;;;;;5063511;28;19904;-79
2024/03/03 08:06:27;;;;;;;;;;;358.50;2329.60;;;;;;5060691;28;19912;-81
2024/03/03 08:08:53;;;;;;;;;;;358.70;2329.60;;;;;;5066059;28;20365;-79
2024/03/03 08:11:19;;;;;;;;;;;358.70;2329.60;;;;;;5062904;28;19983;-80
2024/03/03 08:13:45;;;;;;;;;;;358.80;2329.60;;;;;;5062882;28;19913;-81
2024/03/03 08:16:10;;;;;;;;;;;358.80;2329.60;;;;;;5063525;28;19909;-81
2024/03/03 08:18:36;;;;;;;;;;;358.90;2329.60;;;;;;5059634;28;20043;-81
2024/03/03 08:21:02;;;;;;;;;;;358.90;2329.60;;;;;;5063554;28;19966;-80
2024/03/03 08:23:27;;;;;;;;;;;359.20;2329.60;;;;;;5064701;28;19913;-79
2024/03/03 08:25:53;;;;;;;;;;;359.20;2329.60;;;;;;5079170;28;20313;-77
2024/03/03 08:28:19;;;;;;;;;;;359.00;2329.60;;;;;;5070702;28;19908;-80
2024/03/03 08:30:44;;;;;;;;;;;359.20;2329.60;;;;;;5069512;28;19920;-78
2024/03/03 08:33:10;;;;;;;;;;;384.10;2329.60;;;;;;5058995;28;19919;-77
2024/03/03 08:35:36;;;;;;;;;;;384.30;2329.60;;;;;;5073895;28;19908;-75
2024/03/03 08:38:01;;;;;;;;;;;384.40;2329.60;;;;;;5065957;28;19915;-79
2024/03/03 08:40:27;;;;;;;;;;;384.50;2329.60;;;;;;5063633;28;19935;-76
2024/03/03 08:42:53;;;;;;;;;;;384.20;2329.60;;;;;;5061489;28;20318;-77
2024/03/03 08:45:18;;;;;;;;;;;384.50;2329.60;;;;;;5060553;28;19908;-78
2024/03/03 08:47:44;;;;;;;;;;;384.60;2329.60;;;;;;5062617;28;19905;-78
2024/03/03 08:50:10;;;;;;;;;;;384.80;2329.60;;;;;;5059071;28;19921;-76
2024/03/03 08:52:36;;;;;;;;;;;409.60;2355.20;;;;;;5067044;28;19909;-77
2024/03/03 08:55:03;;;;;;;;;;;409.70;2355.20;;;;;;5064339;28;19909;-76
2024/03/03 08:57:29;;;;;;;;;;;409.90;2355.20;;;;;;5058784;28;20317;-77
2024/03/03 08:59:55;;;;;;;;;;;409.90;2355.20;;;;;;5060407;28;19908;-78
2024/03/03 09:02:21;;;;;;;;;;;410.10;2355.20;;;;;;5060659;28;19909;-76
2024/03/03 09:04:47;;;;;;;;;;;410.00;2355.20;;;;;;5067024;28;20005;-80
2024/03/03 09:07:12;;;;;;;;;;;410.10;2355.20;;;;;;5061867;28;20350;-76
2024/03/03 09:09:38;;;;;;;;;;;410.30;2355.20;;;;;;5059259;28;19920;-78
2024/03/03 09:12:04;;;;;;;;;;;410.50;2355.20;;;;;;5064245;28;19911;-76
2024/03/03 09:14:32;;;;;;;;;;;410.50;2355.20;;;;;;5060129;28;20304;-77
2024/03/03 09:16:58;;;;;;;;;;;435.20;2355.20;;;;;;5061658;28;19909;-77
2024/03/03 09:19:24;;;;;;;;;;;410.40;2355.20;;;;;;5078069;28;19919;-77
2024/03/03 09:21:50;;;;;;;;;;;435.20;2355.20;;;;;;5059918;28;20276;-74
2024/03/03 09:24:17;;;;;;;;;;;435.40;2355.20;;;;;;5062429;28;19908;-79
2024/03/03 09:26:43;;;;;;;;;;;435.70;2355.20;;;;;;5058435;28;20247;-76
2024/03/03 09:29:09;;;;;;;;;;;436.00;2355.20;;;;;;5069569;28;19963;-73
2024/03/03 09:31:34;;;;;;;;;;;460.80;2380.80;;;;;;5057775;28;19912;-77
2024/03/03 09:34:00;;;;;;;;;;;461.10;2355.20;;;;;;5062585;28;19905;-75
2024/03/03 09:36:26;;;;;;;;;;;461.20;2278.40;;;;;;5069233;28;19927;-74
2024/03/03 09:38:51;;;;;;;;;;;461.40;2124.80;;;;;;5060489;28;19909;-76
2024/03/03 09:41:18;;;;;;;;;;;461.20;2150.40;;;;;;5063369;28;19908;-79
2024/03/03 09:43:48;;;;;;;;;;;461.10;2201.60;;;;;;5063061;28;19999;-77
2024/03/03 09:46:14;;;;;;;;;;;461.40;2099.20;;;;;;5073522;28;20015;-76
2024/03/03 09:48:42;;;;;;;;;;;461.60;2099.20;;;;;;5057686;28;19951;-79
2024/03/03 09:51:09;;;;;;;;;;;486.40;2176.00;;;;;;5084248;28;19963;-77
2024/03/03 09:53:37;;;;;;;;;;;486.70;2022.40;;;;;;5065473;28;19934;-77
2024/03/03 09:56:05;;;;;;;;;;;487.30;1894.40;;;;;;5063034;28;20348;-75
2024/03/03 09:58:30;;;;;;;;;;;512.50;1843.20;;;;;;5079533;28;20354;-77
2024/03/03 10:00:57;;;;;;;;;;;512.70;1766.40;;;;;;5064646;28;19904;-77
2024/03/03 10:03:24;;;;;;;;;;;512.40;1740.80;;;;;;5072782;28;19963;-80
2024/03/03 10:05:50;;;;;;;;;;;512.50;1817.60;;;;;;5069405;28;19908;-80
2024/03/03 10:08:18;;;;;;;;;;;512.90;1792.00;;;;;;5060761;28;19908;-76
2024/03/03 10:10:47;;;;;;;;;;;537.70;1792.00;;;;;;5066256;28;19964;-75
2024/03/03 10:13:14;;;;;;;;;;;537.90;1740.80;;;;;;5058992;28;19909;-76
2024/03/03 10:15:45;;;;;;;;;;;538.30;1664.00;;;;;;5060142;28;19916;-79
2024/03/03 10:18:10;;;;;;;;;;;538.50;1638.40;;;;;;5066781;28;19919;-77
2024/03/03 10:20:36;;;;;;;;;;;563.30;1638.40;;;;;;5077376;28;20054;-77
2024/03/03 10:23:02;;;;;;;;;;;563.20;1612.80;;;;;;5058481;28;20371;-75
2024/03/03 10:25:30;;;;;;;;;;;563.40;1587.20;;;;;;5068296;28;20259;-76
2024/03/03 10:28:09;;;;;;;;;;;563.50;1638.40;;;;;;5064208;28;19908;-75
2024/03/03 10:30:35;;;;;;;;;;;563.80;1587.20;;;;;;5068396;28;19966;-76
2024/03/03 10:33:07;;;;;;;;;;;563.80;1536.00;;;;;;5062128;28;20006;-78
2024/03/03 10:35:34;;;;;;;;;;;563.70;1587.20;;;;;;5063452;28;20379;-78
2024/03/03 10:38:01;;;;;;;;;;;563.70;1561.60;;;;;;5086899;28;19932;-78
2024/03/03 10:40:31;;;;;;;;;;;563.90;1587.20;;;;;;5071285;28;19962;-79
2024/03/03 10:42:57;;;;;;;;;;;;;;;;;;5066135;28;20047;-76
2024/03/03 10:45:23;;;;;;;;;;;589.10;1459.20;;;;;;5069102;28;19958;-80
2024/03/03 10:47:49;;;;;;;;;;;589.10;1433.60;;;;;;5061481;28;19915;-77
2024/03/03 10:50:18;;;;;;;;;;;589.30;1433.60;;;;;;5060899;28;20332;-76
2024/03/03 10:52:44;;;;;;;;;;;;;;;;;;5065830;28;19912;-76
2024/03/03 10:55:11;;;;;;;;;;;589.70;1408.00;;;;;;5071340;28;19923;-78
2024/03/03 10:57:37;;;;;;;;;;;589.20;1459.20;;;;;;5062040;28;19909;-79
2024/03/03 11:00:03;;;;;;;;;;;588.80;1459.20;;;;;;5069386;28;19947;-83
2024/03/03 11:02:30;;;;;;;;;;;564.10;1510.40;;;;;;5060977;28;19908;-80
2024/03/03 11:04:56;;;;;;;;;;;564.10;1510.40;;;;;;5067799;28;19947;-80
2024/03/03 11:07:22;;;;;;;;;;;588.80;1510.40;;;;;;5067767;28;19928;-79
2024/03/03 11:09:49;;;;;;;;;;;589.10;1459.20;;;;;;5066552;28;20281;-76
2024/03/03 11:12:19;;;;;;;;;;;589.30;1459.20;;;;;;5076980;28;19905;-76
2024/03/03 11:14:45;;;;;;;;;;;589.50;1408.00;;;;;;5066648;28;19915;-77
2024/03/03 11:17:13;;;;;;;;;;;589.70;1382.40;;;;;;5059674;28;20254;-77
2024/03/03 11:19:44;;;;;;;;;;;589.70;1382.40;;;;;;5066190;28;19912;-75
2024/03/03 11:22:12;;;;;;;;;;;589.70;1408.00;;;;;;5068783;28;19920;-77
2024/03/03 11:24:41;;;;;;;;;;;614.50;1356.80;;;;;;5061747;28;19975;-79
2024/03/03 11:27:12;;;;;;;;;;;589.70;1433.60;;;;;;5063997;28;19990;-80
2024/03/03 11:29:38;;;;;;;;;;;614.50;1382.40;;;;;;5061806;28;20366;-78
2024/03/03 11:32:04;;;;;;;;;;;589.60;1408.00;;;;;;5061618;28;19913;-79
2024/03/03 11:34:31;;;;;;;;;;;614.70;1331.20;;;;;;5062812;28;19913;-80
2024/03/03 11:36:57;;;;;;;;;;;614.50;1356.80;;;;;;5064764;28;20289;-80
2024/03/03 11:39:24;;;;;;;;;;;589.50;1382.40;;;;;;5068729;28;19951;-78
2024/03/03 11:41:50;;;;;;;;;;;589.30;1356.80;;;;;;5061382;28;19958;-75
2024/03/03 11:44:34;;;;;;;;;;;589.60;1408.00;;;;;;5065001;28;19932;-77
2024/03/03 11:46:59;;;;;;;;;;;;;;;;;;5066244;28;19943;-76
2024/03/03 11:49:25;;;;;;;;;;;615.00;1280.00;;;;;;5066403;28;20010;-77
2024/03/03 11:51:51;;;;;;;;;;;614.80;1254.40;;;;;;5064781;28;20196;-76
2024/03/03 11:54:29;;;;;;;;;;;614.90;1254.40;;;;;;5065989;28;19937;-78
2024/03/03 11:56:57;;;;;;;;;;;615.00;1254.40;;;;;;5060775;28;19909;-76
2024/03/03 11:59:24;;;;;;;;;;;614.90;1228.80;;;;;;5065714;28;19915;-76
2024/03/03 12:01:50;;;;;;;;;;;614.90;1254.40;;;;;;5061855;28;19908;-77
2024/03/03 12:04:16;;;;;;;;;;;614.70;1280.00;;;;;;5067669;28;19917;-76
2024/03/03 12:06:45;;;;;;;;;;;614.70;1305.60;;;;;;5068702;28;19908;-77
2024/03/03 12:09:12;;;;;;;;;;;614.70;1305.60;;;;;;5067157;28;20003;-74
2024/03/03 12:11:41;;;;;;;;;;;614.90;1228.80;;;;;;5060396;28;19916;-79
2024/03/03 12:14:07;;;;;;;;;;;614.90;1228.80;;;;;;5070597;28;19908;-77
2024/03/03 12:16:32;;;;;;;;;;;615.20;1228.80;;;;;;5074585;28;19931;-77
2024/03/03 12:18:58;;;;;;;;;;;614.40;1254.40;;;;;;5067892;28;19912;-76
2024/03/03 12:21:24;;;;;;;;;;;614.40;1254.40;;;;;;5058035;28;20305;-78
2024/03/03 12:23:49;;;;;;;;;;;589.70;1305.60;;;;;;5064484;28;20285;-80
2024/03/03 12:26:15;;;;;;;;;;;614.80;1280.00;;;;;;5062678;28;19991;-80
2024/03/03 12:28:41;;;;;;;;;;;615.00;1228.80;;;;;;5065358;28;19908;-76
2024/03/03 12:31:06;;;;;;;;;;;615.00;1228.80;;;;;;5060411;28;20365;-77
2024/03/03 12:33:33;;;;;;;;;;;615.10;1254.40;;;;;;5064410;28;19915;-77
2024/03/03 12:36:00;;;;;;;;;;;614.90;1280.00;;;;;;5064862;28;19919;-77
2024/03/03 12:38:26;;;;;;;;;;;614.80;1280.00;;;;;;5081791;28;19908;-79
2024/03/03 12:40:51;;;;;;;;;;;589.50;1305.60;;;;;;5061963;28;19904;-78
2024/03/03 12:43:17;;;;;;;;;;;614.50;1280.00;;;;;;5056872;28;19955;-76
2024/03/03 12:45:43;;;;;;;;;;;614.50;1254.40;;;;;;5068662;28;19967;-79
2024/03/03 12:48:09;;;;;;;;;;;614.50;1331.20;;;;;;5065256;28;19916;-76
2024/03/03 12:50:35;;;;;;;;;;;614.50;1280.00;;;;;;5065553;28;19927;-77
2024/03/03 12:53:01;;;;;;;;;;;589.30;1331.20;;;;;;5080694;28;19916;-77
2024/03/03 12:55:27;;;;;;;;;;;589.10;1356.80;;;;;;5065126;28;20265;-76
2024/03/03 12:57:53;;;;;;;;;;;589.20;1356.80;;;;;;5066859;28;20003;-79
2024/03/03 13:00:19;;;;;;;;;;;589.50;1331.20;;;;;;5065097;28;20265;-77
2024/03/03 13:02:45;;;;;;;;;;;589.60;1305.60;;;;;;5070026;28;20022;-77
2024/03/03 13:05:14;;;;;;;;;;;589.70;1280.00;;;;;;5064641;28;19912;-77
2024/03/03 13:07:50;;;;;;;;;;;589.70;1280.00;;;;;;5062385;28;20414;-77
2024/03/03 13:10:16;;;;;;;;;;;589.70;1280.00;;;;;;5067195;28;20019;-77
2024/03/03 13:12:41;;;;;;;;;;;589.40;1280.00;;;;;;5081636;28;20004;-77
2024/03/03 13:15:09;;;;;;;;;;;588.90;1331.20;;;;;;5066194;28;19952;-76
2024/03/03 13:17:34;;;;;;;;;;;564.10;1331.20;;;;;;5071074;28;19912;-76
2024/03/03 13:20:00;;;;;;;;;;;588.90;1331.20;;;;;;5066473;28;20003;-76
2024/03/03 13:22:26;;;;;;;;;;;589.00;1331.20;;;;;;5063947;28;19920;-75
2024/03/03 13:24:55;;;;;;;;;;;589.10;1331.20;;;;;;5070256;28;19959;-77
2024/03/03 13:27:22;;;;;;;;;;;589.10;1382.40;;;;;;5066853;28;19908;-77